Pride Of Canterbury — MPQZ6 — position and weather

sailwx.info

Track history (hours):
 
Tides and Currents Weather Stations Pressure Air Temp Water Temp Dewpoint Dewpoint Depression Visibility Wind Speed Wind Dir Waves Ship Positions

Pride Of Canterbury

Operator: P & O Ferries

Last reported at 2017-May-29 16:29 UTC. Time now 2017-May-29 16:52 UTC.
Position N 50°58' E 001°51'.

Length 180 m; draft 5.7 m.

Type: Passenger vessel. MMSI: 232001060.

Date/timePositionNaut miles runAvg speedWind from/ knotsBaromVisibWave heightAir tempDewpointWater temp
2017-May-29 16:29N 50°58' E 001°51'3 7.2
2017-May-29 16:00N 50°58' E 001°45'1119.3
2017-May-29 15:27N 51°03' E 001°30'815.6
2017-May-29 14:56N 51°07' E 001°20'0 0.1
2017-May-29 13:57N 51°07' E 001°20'716.3
2017-May-29 13:31N 51°05' E 001°31'918.8
2017-May-29 13:01N 50°59' E 001°43'5 9.6
2017-May-29 12:28N 50°58' E 001°51'0 0.0
2017-May-29 12:00N 50°58' E 001°51'1 2.8
2017-May-29 11:30N 50°58' E 001°49'917.7
2017-May-29 11:00N 50°58' E 001°35'918.3
2017-May-29 10:30N 51°05' E 001°25'4 7.7
2017-May-29 09:59N 51°07' E 001°20'0 0.0
2017-May-29 09:19N 51°07' E 001°20'2 6.8
2017-May-29 09:00N 51°07' E 001°23'1019.2
2017-May-29 08:30N 51°02' E 001°37'917.8
2017-May-29 08:00N 50°58' E 001°49'1 2.2
2017-May-29 07:30N 50°58' E 001°51'0 0.0
2017-May-29 07:00N 50°58' E 001°51'5 9.4
2017-May-29 06:31N 50°58' E 001°44'918.0
2017-May-29 06:00N 51°02' E 001°31'912.3
2017-May-29 05:18N 51°07' E 001°20'0 0.0
2017-May-29 05:00N 51°07' E 001°20'0 0.1
2017-May-29 04:10N 51°07' E 001°20'1 8.8
2017-May-29 04:00N 51°07' E 001°22'917.5
2017-May-29 03:30N 51°02' E 001°34'917.4
2017-May-29 03:01N 50°58' E 001°46'3 6.9
2017-May-29 02:30N 50°58' E 001°52'0 0.0
2017-May-29 02:00N 50°58' E 001°52'0 0.0
2017-May-29 01:30N 50°58' E 001°52'714.2
2017-May-29 01:00N 50°59' E 001°40'919.0
2017-May-29 00:30N 51°04' E 001°28'612.1
2017-May-29 00:00N 51°07' E 001°20'0 0.0
2017-May-28 23:30N 51°07' E 001°20'3 5.2
2017-May-28 23:01N 51°07' E 001°24'714.9
2017-May-28 22:30N 51°03' E 001°35'917.1
2017-May-28 22:00N 50°58' E 001°45'4 7.4
2017-May-28 21:30N 50°58' E 001°51'0 0.0
2017-May-28 21:00N 50°58' E 001°51'612.7
2017-May-28 20:30N 50°58' E 001°41'917.8
2017-May-28 20:00N 51°03' E 001°29'713.9
2017-May-28 19:30N 51°07' E 001°20'0 0.0
2017-May-28 19:00N 51°07' E 001°20'1 1.4
2017-May-28 18:31N 51°07' E 001°21'1019.1
2017-May-28 18:01N 51°03' E 001°35'918.7
2017-May-28 17:30N 50°58' E 001°48'2 4.2
2017-May-28 17:00N 50°58' E 001°51'1 2.5
2017-May-28 16:30N 50°58' E 001°49'918.7
2017-May-28 16:00N 51°01' E 001°35'1020.0
2017-May-28 15:30N 51°07' E 001°22'1 2.6
2017-May-28 14:59N 51°07' E 001°20'5 4.9
2017-May-28 14:01N 51°07' E 001°28'917.7
2017-May-28 13:31N 51°02' E 001°39'815.6
2017-May-28 13:00N 50°58' E 001°50'0 1.0
2017-May-28 12:30N 50°58' E 001°51'0 0.0
2017-May-28 12:00N 50°58' E 001°51'4 7.6
2017-May-28 11:31N 50°58' E 001°45'918.9
2017-May-28 11:01N 51°02' E 001°31'917.5
2017-May-28 10:30N 51°07' E 001°20'0 0.3
2017-May-28 10:00N 51°07' E 001°20'0 0.0
2017-May-28 09:30N 51°07' E 001°20'4 8.1
2017-May-28 09:01N 51°06' E 001°26'1019.4
2017-May-28 08:31N 51°02' E 001°40'815.5
2017-May-28 08:00N 50°58' E 001°51'0 0.4
2017-May-28 07:30N 50°58' E 001°51'0 0.2
2017-May-28 07:00N 50°58' E 001°51'612.5
2017-May-28 06:30N 50°58' E 001°41'918.8
2017-May-28 06:00N 51°04' E 001°29'711.7
2017-May-28 05:27N 51°07' E 001°20'0 0.0
2017-May-28 04:59N 51°07' E 001°20'0 0.0
2017-May-28 04:30N 51°07' E 001°20'0 0.0
2017-May-28 04:00N 51°07' E 001°20'0 0.0
2017-May-28 03:29N 51°07' E 001°20'0 0.0
2017-May-28 02:55N 51°07' E 001°20'0 0.0
2017-May-28 02:21N 51°07' E 001°20'0 0.0
2017-May-28 02:00N 51°07' E 001°20'0 0.0
2017-May-28 01:23N 51°07' E 001°20'0 0.0
2017-May-28 01:00N 51°07' E 001°20'0 0.0
2017-May-28 00:30N 51°07' E 001°20'0 0.0
2017-May-28 00:00N 51°07' E 001°20'0 0.0
2017-May-27 23:30N 51°07' E 001°20'0 0.0
2017-May-27 23:00N 51°07' E 001°20'0 0.0
2017-May-27 22:30N 51°07' E 001°20'0 0.0
2017-May-27 22:00N 51°07' E 001°20'0 0.0
2017-May-27 21:30N 51°07' E 001°20'0 0.0
2017-May-27 21:00N 51°07' E 001°20'0 0.0
2017-May-27 20:30N 51°07' E 001°20'0 0.0
2017-May-27 20:00N 51°07' E 001°20'0 0.0
2017-May-27 19:30N 51°07' E 001°20'0 0.0
2017-May-27 18:59N 51°07' E 001°20'0 0.1
2017-May-27 18:29N 51°07' E 001°20'714.6
2017-May-27 18:00N 51°04' E 001°30'1019.4
2017-May-27 17:30N 50°59' E 001°43'510.3
2017-May-27 17:01N 50°58' E 001°51'0 0.0
2017-May-27 16:30N 50°58' E 001°51'4 8.4
2017-May-27 16:00N 50°58' E 001°44'1019.0
2017-May-27 15:30N 51°02' E 001°31'816.8
2017-May-27 15:00N 51°07' E 001°20'0 0.0
2017-May-27 14:21N 51°07' E 001°20'6 6.9
2017-May-27 13:30N 51°06' E 001°29'917.2
2017-May-27 13:00N 51°01' E 001°40'714.6
2017-May-27 12:31N 50°58' E 001°51'0 0.5
2017-May-27 12:00N 50°58' E 001°51'0 0.4
2017-May-27 11:26N 50°58' E 001°51'818.7
2017-May-27 11:01N 50°60' E 001°38'1019.1
2017-May-27 10:30N 51°05' E 001°26'4 7.4
2017-May-27 09:57N 51°07' E 001°20'0 0.0
2017-May-27 09:26N 51°07' E 001°20'2 3.7
2017-May-27 09:00N 51°07' E 001°23'1019.5
2017-May-27 08:30N 51°02' E 001°36'918.6
2017-May-27 08:00N 50°58' E 001°49'1 1.9
2017-May-27 07:29N 50°58' E 001°51'0 0.0
2017-May-27 07:00N 50°58' E 001°51'713.9
2017-May-27 06:30N 50°58' E 001°40'917.8
2017-May-27 06:00N 51°04' E 001°29'7 8.3
2017-May-27 05:13N 51°07' E 001°20'0 0.0
2017-May-27 05:00N 51°07' E 001°20'0 0.0
2017-May-27 04:24N 51°07' E 001°20'2 4.6
2017-May-27 04:00N 51°07' E 001°23'917.3
2017-May-27 03:31N 51°03' E 001°35'816.8
2017-May-27 03:00N 50°58' E 001°46'4 7.4
2017-May-27 02:30N 50°58' E 001°52'0 0.0
2017-May-27 02:00N 50°58' E 001°52'0 0.0
2017-May-27 01:30N 50°58' E 001°52'713.8
2017-May-27 01:00N 50°59' E 001°41'1019.3
2017-May-27 00:30N 51°04' E 001°28'611.8
2017-May-27 00:00N 51°07' E 001°20'0 0.0
2017-May-26 23:22N 51°07' E 001°20'410.8
2017-May-26 23:00N 51°06' E 001°26'1019.2
2017-May-26 22:31N 51°01' E 001°39'815.8
2017-May-26 22:00N 50°58' E 001°51'0 0.5
2017-May-26 21:30N 50°58' E 001°51'1 1.9
2017-May-26 21:00N 50°58' E 001°50'816.9
2017-May-26 20:31N 50°58' E 001°36'917.8
2017-May-26 20:00N 51°04' E 001°25'5 7.5
2017-May-26 19:23N 51°07' E 001°20'0 0.0
2017-May-26 18:55N 51°07' E 001°20'2 6.1
2017-May-26 18:31N 51°07' E 001°24'918.2
2017-May-26 18:01N 51°02' E 001°36'918.9
2017-May-26 17:31N 50°58' E 001°50'1 1.5
2017-May-26 17:00N 50°58' E 001°51'0 0.1
2017-May-26 16:30N 50°58' E 001°51'714.4
2017-May-26 16:00N 50°58' E 001°40'918.9
2017-May-26 15:30N 51°03' E 001°27'610.4
2017-May-26 14:56N 51°07' E 001°20'0 0.0
2017-May-26 14:30N 51°07' E 001°20'1110.7
2017-May-26 13:31N 51°02' E 001°35'917.4
2017-May-26 13:01N 50°58' E 001°47'3 5.9
2017-May-26 12:30N 50°58' E 001°52'0 0.0
2017-May-26 12:01N 50°58' E 001°52'2 3.3
2017-May-26 11:30N 50°58' E 001°49'918.8
2017-May-26 11:00N 50°60' E 001°34'1019.2
2017-May-26 10:30N 51°06' E 001°22'2 1.8
2017-May-26 09:24N 51°07' E 001°20'2 6.0
2017-May-26 09:00N 51°07' E 001°24'1019.8
2017-May-26 08:30N 51°02' E 001°37'918.1
2017-May-26 08:00N 50°58' E 001°51'0 0.7
2017-May-26 07:30N 50°58' E 001°51'0 0.1
2017-May-26 07:00N 50°58' E 001°51'714.4
2017-May-26 06:30N 50°59' E 001°40'918.2
2017-May-26 06:00N 51°04' E 001°28'611.7
2017-May-26 05:29N 51°07' E 001°20'0 0.0
2017-May-26 04:51N 51°07' E 001°20'0 0.0
2017-May-26 04:30N 51°07' E 001°20'0 0.6
2017-May-26 04:01N 51°07' E 001°20'815.4
2017-May-26 03:30N 51°05' E 001°32'917.2
2017-May-26 03:00N 50°59' E 001°43'510.8
2017-May-26 02:30N 50°58' E 001°51'0 0.0
2017-May-26 02:00N 50°58' E 001°51'4 8.4
2017-May-26 01:31N 50°58' E 001°44'919.0
2017-May-26 01:01N 51°03' E 001°31'810.6
2017-May-26 00:13N 51°07' E 001°20'0 0.0
2017-May-25 23:59N 51°07' E 001°20'0 0.0
2017-May-25 23:29N 51°07' E 001°20'3 6.9
2017-May-25 23:00N 51°07' E 001°25'918.4
2017-May-25 22:30N 51°03' E 001°39'816.0
2017-May-25 22:00N 50°58' E 001°49'1 2.9
2017-May-25 21:30N 50°58' E 001°51'0 0.4
2017-May-25 21:00N 50°58' E 001°51'816.5
2017-May-25 20:30N 50°59' E 001°38'917.2
2017-May-25 20:00N 51°02' E 001°25'6 4.4
2017-May-25 18:41N 51°07' E 001°20'213.8
2017-May-25 18:30N 51°07' E 001°24'918.9
2017-May-25 18:00N 51°01' E 001°37'918.4
2017-May-25 17:30N 50°58' E 001°50'1 1.1
2017-May-25 17:00N 50°58' E 001°51'0 0.0
2017-May-25 16:30N 50°58' E 001°51'4 8.6
2017-May-25 16:01N 50°58' E 001°44'917.8
2017-May-25 15:31N 51°02' E 001°32'917.8
2017-May-25 15:00N 51°07' E 001°20'0 0.2
2017-May-25 13:59N 51°07' E 001°20'713.8
2017-May-25 13:30N 51°06' E 001°30'918.7
2017-May-25 13:00N 50°60' E 001°42'612.0
2017-May-25 12:30N 50°58' E 001°51'0 0.0
2017-May-25 12:00N 50°58' E 001°51'1 1.7
2017-May-25 11:31N 50°58' E 001°50'918.5
2017-May-25 11:00N 51°01' E 001°36'1019.0
2017-May-25 10:30N 51°06' E 001°23'2 4.1
2017-May-25 10:00N 51°07' E 001°20'0 0.0
2017-May-25 09:29N 51°07' E 001°20'5 9.6
2017-May-25 09:01N 51°06' E 001°27'918.7
2017-May-25 08:31N 51°00' E 001°39'815.7
2017-May-25 08:00N 50°58' E 001°51'0 0.3
2017-May-25 07:30N 50°58' E 001°51'0 0.0
2017-May-25 06:58N 50°58' E 001°51'612.5
2017-May-25 06:30N 50°58' E 001°42'816.3
2017-May-25 06:00N 51°03' E 001°31'813.7
2017-May-25 05:23N 51°07' E 001°20'0 0.0
2017-May-25 05:00N 51°07' E 001°20'0 0.5
2017-May-25 04:20N 51°07' E 001°20'1 3.8
2017-May-25 04:00N 51°07' E 001°22'713.3
2017-May-25 03:30N 51°05' E 001°32'816.4
2017-May-25 03:00N 50°60' E 001°42'611.3
2017-May-25 02:30N 50°58' E 001°51'0 0.0
2017-May-25 01:59N 50°58' E 001°51'0 0.0
2017-May-25 01:30N 50°58' E 001°51'713.6
2017-May-25 01:00N 50°59' E 001°40'1019.4
2017-May-25 00:31N 51°04' E 001°28'610.9
2017-May-24 23:59N 51°07' E 001°20'0 0.0
2017-May-24 23:26N 51°07' E 001°20'2 4.4
2017-May-24 23:01N 51°07' E 001°23'917.8
2017-May-24 22:31N 51°03' E 001°36'917.1
2017-May-24 22:01N 50°58' E 001°47'3 5.4
2017-May-24 21:30N 50°58' E 001°51'0 0.0
2017-May-24 21:00N 50°58' E 001°51'3 6.7
2017-May-24 20:30N 50°58' E 001°46'918.3
2017-May-24 20:00N 51°01' E 001°32'1016.6
2017-May-24 19:24N 51°07' E 001°20'0 0.0
2017-May-24 19:00N 51°07' E 001°20'2 3.3
2017-May-24 18:31N 51°07' E 001°23'1019.3
2017-May-24 18:01N 51°03' E 001°36'918.2
2017-May-24 17:30N 50°58' E 001°49'1 2.6
2017-May-24 17:00N 50°58' E 001°51'0 0.0
2017-May-24 16:28N 50°58' E 001°51'612.6
2017-May-24 16:00N 50°58' E 001°42'917.6
2017-May-24 15:30N 51°03' E 001°30'8 7.6
2017-May-24 14:29N 51°07' E 001°20'1212.4
2017-May-24 13:31N 51°02' E 001°38'917.1
2017-May-24 13:00N 50°58' E 001°50'1 1.5
2017-May-24 12:30N 50°58' E 001°51'0 0.0
2017-May-24 12:00N 50°58' E 001°51'4 7.6
2017-May-24 11:30N 50°58' E 001°45'1019.1
2017-May-24 11:00N 51°02' E 001°32'917.0
2017-May-24 10:29N 51°07' E 001°20'0 0.0
2017-May-24 09:57N 51°07' E 001°20'0 0.4
2017-May-24 09:28N 51°07' E 001°20'4 7.9
2017-May-24 09:01N 51°07' E 001°26'1019.3
2017-May-24 08:31N 51°01' E 001°39'816.0
2017-May-24 08:00N 50°58' E 001°51'0 0.7
2017-May-24 07:30N 50°58' E 001°51'1 1.4
2017-May-24 07:00N 50°58' E 001°50'917.7
2017-May-24 06:30N 50°60' E 001°36'919.0
2017-May-24 06:00N 51°05' E 001°24'3 4.7
2017-May-24 05:19N 51°07' E 001°20'0 0.0
2017-May-24 05:00N 51°07' E 001°20'1 2.6
2017-May-24 04:30N 51°07' E 001°22'4 8.6
2017-May-24 04:01N 51°06' E 001°29'1019.0
2017-May-24 03:31N 51°00' E 001°40'713.9
2017-May-24 03:00N 50°58' E 001°51'0 1.0
2017-May-24 02:30N 50°58' E 001°52'0 0.0
2017-May-24 02:00N 50°58' E 001°52'3 5.5
2017-May-24 01:30N 50°58' E 001°47'918.1
2017-May-24 01:00N 51°01' E 001°34'918.6
2017-May-24 00:30N 51°07' E 001°22'1 2.8
2017-May-24 00:00N 51°07' E 001°20'0 0.0
2017-May-23 23:28N 51°07' E 001°20'1 2.7
2017-May-23 22:59N 51°07' E 001°22'611.5
2017-May-23 22:31N 51°06' E 001°30'918.5
2017-May-23 22:01N 50°60' E 001°42'611.7
2017-May-23 21:29N 50°58' E 001°51'0 0.0
2017-May-23 20:58N 50°58' E 001°51'2 4.1
2017-May-23 20:29N 50°58' E 001°48'919.2
2017-May-23 20:00N 51°00' E 001°34'918.9
2017-May-23 19:30N 51°06' E 001°22'2 2.5
2017-May-23 18:53N 51°07' E 001°20'0 0.3
2017-May-23 18:29N 51°07' E 001°20'611.7
2017-May-23 18:01N 51°05' E 001°29'917.3
2017-May-23 17:31N 51°00' E 001°40'714.8
2017-May-23 17:01N 50°58' E 001°51'0 0.2
2017-May-23 16:30N 50°58' E 001°51'0 0.2
2017-May-23 16:00N 50°58' E 001°51'714.9
2017-May-23 15:30N 50°59' E 001°39'918.5
2017-May-23 15:00N 51°04' E 001°27'5 5.2
2017-May-23 13:57N 51°07' E 001°20'4 8.5
2017-May-23 13:30N 51°07' E 001°26'816.1
2017-May-23 13:00N 51°01' E 001°35'816.7
2017-May-23 12:30N 50°58' E 001°48'2 4.1
2017-May-23 11:59N 50°58' E 001°51'0 0.0
2017-May-23 11:29N 50°58' E 001°51'612.9
2017-May-23 11:00N 50°58' E 001°41'1019.0
2017-May-23 10:30N 51°04' E 001°29'712.9
2017-May-23 10:00N 51°07' E 001°20'0 0.0
2017-May-23 09:24N 51°07' E 001°20'3 6.8
2017-May-23 09:00N 51°07' E 001°24'816.9
2017-May-23 08:30N 51°03' E 001°36'816.1
2017-May-23 08:00N 50°58' E 001°46'3 5.5
2017-May-23 07:30N 50°58' E 001°51'0 0.0
2017-May-23 06:59N 50°58' E 001°51'511.1
2017-May-23 06:30N 50°58' E 001°43'918.8
2017-May-23 06:00N 51°03' E 001°29'8 9.0
2017-May-23 05:10N 51°07' E 001°20'0 0.0
2017-May-23 04:49N 51°07' E 001°20'0 0.0
2017-May-23 04:29N 51°07' E 001°20'0 0.0
2017-May-23 04:00N 51°07' E 001°20'612.7
2017-May-23 03:30N 51°05' E 001°29'1019.1
2017-May-23 03:01N 50°59' E 001°41'612.5
2017-May-23 02:31N 50°58' E 001°51'0 0.0
2017-May-23 01:59N 50°58' E 001°51'0 0.0
2017-May-23 01:30N 50°58' E 001°51'611.9
2017-May-23 01:00N 50°59' E 001°42'1020.0
2017-May-23 00:30N 51°03' E 001°28'611.5
2017-May-22 23:57N 51°07' E 001°20'0 0.0
2017-May-22 23:17N 51°07' E 001°20'0 0.5
2017-May-22 23:00N 51°07' E 001°20'815.6
2017-May-22 22:30N 51°05' E 001°31'1019.4
2017-May-22 22:00N 50°59' E 001°44'5 9.1
2017-May-22 21:30N 50°58' E 001°51'0 0.0
2017-May-22 21:00N 50°58' E 001°51'4 7.3
2017-May-22 20:30N 50°58' E 001°45'1020.3
2017-May-22 20:00N 51°02' E 001°31'8 4.9
2017-May-22 18:20N 51°07' E 001°20'617.1
2017-May-22 18:00N 51°06' E 001°29'1019.5
2017-May-22 17:30N 51°00' E 001°42'612.2
2017-May-22 17:00N 50°58' E 001°51'0 0.0
2017-May-22 16:26N 50°58' E 001°51'2 4.0
2017-May-22 16:00N 50°58' E 001°48'917.3
2017-May-22 15:30N 50°60' E 001°35'1019.3
2017-May-22 15:00N 51°06' E 001°23'2 2.4
2017-May-22 13:59N 51°07' E 001°20'3 6.6
2017-May-22 13:30N 51°07' E 001°25'817.0
2017-May-22 13:00N 51°02' E 001°36'816.7
2017-May-22 12:30N 50°58' E 001°48'2 3.6
2017-May-22 12:00N 50°58' E 001°51'0 0.0
2017-May-22 11:30N 50°58' E 001°51'714.4
2017-May-22 11:00N 50°59' E 001°40'1019.5
2017-May-22 10:31N 51°04' E 001°26'5 6.9
2017-May-22 09:45N 51°07' E 001°20'0 0.0
2017-May-22 09:29N 51°07' E 001°20'2 4.8
2017-May-22 09:01N 51°07' E 001°24'917.2
2017-May-22 08:31N 51°02' E 001°35'816.3
2017-May-22 08:01N 50°58' E 001°46'3 5.7
2017-May-22 07:30N 50°58' E 001°51'0 0.0
2017-May-22 07:00N 50°58' E 001°51'510.0
2017-May-22 06:30N 50°58' E 001°43'917.8
2017-May-22 06:01N 51°03' E 001°31'816.2
2017-May-22 05:30N 51°07' E 001°20'0 0.1
2017-May-22 04:58N 51°07' E 001°20'0 0.0
2017-May-22 04:30N 51°07' E 001°20'3 5.2
2017-May-22 04:00N 51°07' E 001°24'1019.1
2017-May-22 03:30N 51°02' E 001°37'917.9
2017-May-22 03:01N 50°58' E 001°50'1 2.0
2017-May-22 02:30N 50°58' E 001°52'0 0.0
2017-May-22 02:01N 50°58' E 001°52'0 0.0
2017-May-22 01:30N 50°58' E 001°52'2 4.0
2017-May-22 01:01N 50°58' E 001°48'816.9
2017-May-22 00:31N 51°01' E 001°36'1019.8
2017-May-22 00:01N 51°06' E 001°22'2 3.4
2017-May-21 23:27N 51°07' E 001°20'0 0.3
2017-May-21 23:00N 51°07' E 001°20'816.1
2017-May-21 22:30N 51°04' E 001°32'917.5
2017-May-21 22:00N 50°59' E 001°43'5 9.8
2017-May-21 21:30N 50°58' E 001°51'0 0.0
2017-May-21 21:00N 50°58' E 001°51'0 0.1
2017-May-21 20:30N 50°58' E 001°51'714.7
2017-May-21 20:00N 50°59' E 001°39'917.1
2017-May-21 19:30N 51°03' E 001°28'612.4
2017-May-21 19:00N 51°07' E 001°20'0 0.0
2017-May-21 18:27N 51°07' E 001°20'3 7.3
2017-May-21 18:01N 51°06' E 001°25'917.9
2017-May-21 17:31N 51°01' E 001°37'815.7
2017-May-21 17:00N 50°58' E 001°48'2 3.4
2017-May-21 16:30N 50°58' E 001°51'0 0.0
2017-May-21 16:00N 50°58' E 001°51'511.0
2017-May-21 15:30N 50°58' E 001°42'816.9
2017-May-21 15:00N 51°02' E 001°31'9 8.5
2017-May-21 14:00N 51°07' E 001°20'1 2.4
2017-May-21 13:30N 51°06' E 001°21'917.1
2017-May-21 13:00N 51°02' E 001°33'917.5
2017-May-21 12:31N 50°58' E 001°45'4 7.2
2017-May-21 12:00N 50°58' E 001°51'0 0.0
2017-May-21 11:30N 50°58' E 001°51'510.2
2017-May-21 11:01N 50°58' E 001°43'918.2
2017-May-21 10:31N 51°03' E 001°31'814.3
2017-May-21 09:57N 51°07' E 001°20'0 0.0
2017-May-21 09:30N 51°07' E 001°20'2 5.1
2017-May-21 09:01N 51°07' E 001°24'917.3
2017-May-21 08:30N 51°02' E 001°36'816.3
2017-May-21 08:01N 50°58' E 001°47'3 5.1
2017-May-21 07:30N 50°58' E 001°51'0 0.0
2017-May-21 07:00N 50°58' E 001°51'715.0
2017-May-21 06:30N 50°59' E 001°39'1019.5
2017-May-21 06:01N 51°04' E 001°26'510.0
2017-May-21 05:30N 51°07' E 001°20'0 0.0
2017-May-21 04:59N 51°07' E 001°20'0 0.0
2017-May-21 04:30N 51°07' E 001°20'0 0.0
2017-May-21 04:00N 51°07' E 001°20'510.3
2017-May-21 03:30N 51°06' E 001°28'1019.8
2017-May-21 03:00N 51°00' E 001°40'713.5
2017-May-21 02:30N 50°58' E 001°51'0 0.0
2017-May-21 02:00N 50°58' E 001°51'0 0.0
2017-May-21 01:30N 50°58' E 001°51'5 9.8
2017-May-21 01:01N 50°58' E 001°43'918.1
2017-May-21 00:31N 51°01' E 001°30'713.9
2017-May-21 00:00N 51°06' E 001°23'2 3.6
2017-May-20 23:28N 51°07' E 001°20'0 0.3
2017-May-20 22:58N 51°07' E 001°20'714.6
2017-May-20 22:30N 51°06' E 001°31'917.9
2017-May-20 22:00N 50°60' E 001°41'612.6
2017-May-20 21:30N 50°58' E 001°51'0 0.0
2017-May-20 21:00N 50°58' E 001°51'0 0.7
2017-May-20 20:29N 50°58' E 001°51'817.3
2017-May-20 20:00N 50°59' E 001°37'816.8
2017-May-20 19:30N 51°04' E 001°27'5 4.4
2017-May-20 18:17N 51°07' E 001°20'414.2
2017-May-20 18:00N 51°07' E 001°27'918.8
2017-May-20 17:30N 51°01' E 001°38'816.3
2017-May-20 17:00N 50°58' E 001°51'0 0.7
2017-May-20 16:30N 50°58' E 001°51'0 0.0
2017-May-20 16:00N 50°58' E 001°51'815.4
2017-May-20 15:30N 50°59' E 001°39'1019.1
2017-May-20 15:00N 51°05' E 001°27'5 7.2
2017-May-20 14:20N 51°07' E 001°20'3 3.2
2017-May-20 13:30N 51°06' E 001°24'816.5
2017-May-20 13:01N 51°03' E 001°35'816.9
2017-May-20 12:30N 50°58' E 001°47'3 4.8
2017-May-20 11:59N 50°58' E 001°51'0 0.0
2017-May-20 11:30N 50°58' E 001°51'613.0
2017-May-20 11:00N 50°59' E 001°41'919.0
2017-May-20 10:30N 51°04' E 001°28'6 4.9
2017-May-20 09:16N 51°07' E 001°20'2 6.4
2017-May-20 09:00N 51°07' E 001°23'917.1
2017-May-20 08:31N 51°03' E 001°34'816.9
2017-May-20 08:00N 50°58' E 001°46'3 6.6
2017-May-20 07:30N 50°58' E 001°51'0 0.0
2017-May-20 07:00N 50°58' E 001°51'611.7
2017-May-20 06:31N 50°59' E 001°42'918.9
2017-May-20 06:00N 51°03' E 001°29'7 9.6
2017-May-20 05:18N 51°07' E 001°20'0 0.0
2017-May-20 04:58N 51°07' E 001°20'0 0.0
2017-May-20 04:21N 51°07' E 001°20'411.3
2017-May-20 04:00N 51°06' E 001°26'919.0
2017-May-20 03:30N 51°01' E 001°39'816.4
2017-May-20 03:01N 50°58' E 001°51'1 1.0
2017-May-20 02:30N 50°58' E 001°52'0 0.0
2017-May-20 02:00N 50°58' E 001°52'0 0.0
2017-May-20 01:30N 50°58' E 001°52'510.9
2017-May-20 01:00N 50°58' E 001°43'918.7
2017-May-20 00:31N 51°03' E 001°30'815.5
2017-May-20 00:00N 51°07' E 001°20'0 0.1
2017-May-19 23:02N 51°07' E 001°20'0 1.8
2017-May-19 22:59N 51°07' E 001°20'613.3
2017-May-19 22:31N 51°05' E 001°29'918.2
2017-May-19 22:01N 50°60' E 001°41'612.8
2017-May-19 21:30N 50°58' E 001°51'0 0.0
2017-May-19 21:00N 50°58' E 001°51'0 0.5
2017-May-19 20:30N 50°58' E 001°51'917.8
2017-May-19 20:00N 50°59' E 001°37'918.6
2017-May-19 19:30N 51°05' E 001°26'4 3.4
2017-May-19 18:17N 51°07' E 001°20'311.2
2017-May-19 18:00N 51°06' E 001°25'1019.2
2017-May-19 17:30N 51°01' E 001°38'816.8
2017-May-19 17:01N 50°58' E 001°50'1 1.1
2017-May-19 16:30N 50°58' E 001°51'  
Track history (hours):
 
Tides and Currents Weather Stations Pressure Air Temp Water Temp Dewpoint Dewpoint Depression Visibility Wind Speed Wind Dir Waves Ship Positions

Pride Of Canterbury

Operator: P & O Ferries

Last reported at 2017-May-29 16:29 UTC. Time now 2017-May-29 16:52 UTC.
Position N 50°58' E 001°51'.

Length 180 m; draft 5.7 m.

Type: Passenger vessel. MMSI: 232001060.

Date/timePositionNaut miles runAvg speedWind from/ knotsBaromVisibWave heightAir tempDewpointWater temp
2017-May-29 16:29N 50°58' E 001°51'3 7.2
2017-May-29 16:00N 50°58' E 001°45'1119.3
2017-May-29 15:27N 51°03' E 001°30'815.6
2017-May-29 14:56N 51°07' E 001°20'0 0.1
2017-May-29 13:57N 51°07' E 001°20'716.3
2017-May-29 13:31N 51°05' E 001°31'918.8
2017-May-29 13:01N 50°59' E 001°43'5 9.6
2017-May-29 12:28N 50°58' E 001°51'0 0.0
2017-May-29 12:00N 50°58' E 001°51'1 2.8
2017-May-29 11:30N 50°58' E 001°49'917.7
2017-May-29 11:00N 50°58' E 001°35'918.3
2017-May-29 10:30N 51°05' E 001°25'4 7.7
2017-May-29 09:59N 51°07' E 001°20'0 0.0
2017-May-29 09:19N 51°07' E 001°20'2 6.8
2017-May-29 09:00N 51°07' E 001°23'1019.2
2017-May-29 08:30N 51°02' E 001°37'917.8
2017-May-29 08:00N 50°58' E 001°49'1 2.2
2017-May-29 07:30N 50°58' E 001°51'0 0.0
2017-May-29 07:00N 50°58' E 001°51'5 9.4
2017-May-29 06:31N 50°58' E 001°44'918.0
2017-May-29 06:00N 51°02' E 001°31'912.3
2017-May-29 05:18N 51°07' E 001°20'0 0.0
2017-May-29 05:00N 51°07' E 001°20'0 0.1
2017-May-29 04:10N 51°07' E 001°20'1 8.8
2017-May-29 04:00N 51°07' E 001°22'917.5
2017-May-29 03:30N 51°02' E 001°34'917.4
2017-May-29 03:01N 50°58' E 001°46'3 6.9
2017-May-29 02:30N 50°58' E 001°52'0 0.0
2017-May-29 02:00N 50°58' E 001°52'0 0.0
2017-May-29 01:30N 50°58' E 001°52'714.2
2017-May-29 01:00N 50°59' E 001°40'919.0
2017-May-29 00:30N 51°04' E 001°28'612.1
2017-May-29 00:00N 51°07' E 001°20'0 0.0
2017-May-28 23:30N 51°07' E 001°20'3 5.2
2017-May-28 23:01N 51°07' E 001°24'714.9
2017-May-28 22:30N 51°03' E 001°35'917.1
2017-May-28 22:00N 50°58' E 001°45'4 7.4
2017-May-28 21:30N 50°58' E 001°51'0 0.0
2017-May-28 21:00N 50°58' E 001°51'612.7
2017-May-28 20:30N 50°58' E 001°41'917.8
2017-May-28 20:00N 51°03' E 001°29'713.9
2017-May-28 19:30N 51°07' E 001°20'0 0.0
2017-May-28 19:00N 51°07' E 001°20'1 1.4
2017-May-28 18:31N 51°07' E 001°21'1019.1
2017-May-28 18:01N 51°03' E 001°35'918.7
2017-May-28 17:30N 50°58' E 001°48'2 4.2
2017-May-28 17:00N 50°58' E 001°51'1 2.5
2017-May-28 16:30N 50°58' E 001°49'918.7
2017-May-28 16:00N 51°01' E 001°35'1020.0
2017-May-28 15:30N 51°07' E 001°22'1 2.6
2017-May-28 14:59N 51°07' E 001°20'5 4.9
2017-May-28 14:01N 51°07' E 001°28'917.7
2017-May-28 13:31N 51°02' E 001°39'815.6
2017-May-28 13:00N 50°58' E 001°50'0 1.0
2017-May-28 12:30N 50°58' E 001°51'0 0.0
2017-May-28 12:00N 50°58' E 001°51'4 7.6
2017-May-28 11:31N 50°58' E 001°45'918.9
2017-May-28 11:01N 51°02' E 001°31'917.5
2017-May-28 10:30N 51°07' E 001°20'0 0.3
2017-May-28 10:00N 51°07' E 001°20'0 0.0
2017-May-28 09:30N 51°07' E 001°20'4 8.1
2017-May-28 09:01N 51°06' E 001°26'1019.4
2017-May-28 08:31N 51°02' E 001°40'815.5
2017-May-28 08:00N 50°58' E 001°51'0 0.4
2017-May-28 07:30N 50°58' E 001°51'0 0.2
2017-May-28 07:00N 50°58' E 001°51'612.5
2017-May-28 06:30N 50°58' E 001°41'918.8
2017-May-28 06:00N 51°04' E 001°29'711.7
2017-May-28 05:27N 51°07' E 001°20'0 0.0
2017-May-28 04:59N 51°07' E 001°20'0 0.0
2017-May-28 04:30N 51°07' E 001°20'0 0.0
2017-May-28 04:00N 51°07' E 001°20'0 0.0
2017-May-28 03:29N 51°07' E 001°20'0 0.0
2017-May-28 02:55N 51°07' E 001°20'0 0.0
2017-May-28 02:21N 51°07' E 001°20'0 0.0
2017-May-28 02:00N 51°07' E 001°20'0 0.0
2017-May-28 01:23N 51°07' E 001°20'0 0.0
2017-May-28 01:00N 51°07' E 001°20'0 0.0
2017-May-28 00:30N 51°07' E 001°20'0 0.0
2017-May-28 00:00N 51°07' E 001°20'0 0.0
2017-May-27 23:30N 51°07' E 001°20'0 0.0
2017-May-27 23:00N 51°07' E 001°20'0 0.0
2017-May-27 22:30N 51°07' E 001°20'0 0.0
2017-May-27 22:00N 51°07' E 001°20'0 0.0
2017-May-27 21:30N 51°07' E 001°20'0 0.0
2017-May-27 21:00N 51°07' E 001°20'0 0.0
2017-May-27 20:30N 51°07' E 001°20'0 0.0
2017-May-27 20:00N 51°07' E 001°20'0 0.0
2017-May-27 19:30N 51°07' E 001°20'0 0.0
2017-May-27 18:59N 51°07' E 001°20'0 0.1
2017-May-27 18:29N 51°07' E 001°20'714.6
2017-May-27 18:00N 51°04' E 001°30'1019.4
2017-May-27 17:30N 50°59' E 001°43'510.3
2017-May-27 17:01N 50°58' E 001°51'0 0.0
2017-May-27 16:30N 50°58' E 001°51'4 8.4
2017-May-27 16:00N 50°58' E 001°44'1019.0
2017-May-27 15:30N 51°02' E 001°31'816.8
2017-May-27 15:00N 51°07' E 001°20'0 0.0
2017-May-27 14:21N 51°07' E 001°20'6 6.9
2017-May-27 13:30N 51°06' E 001°29'917.2
2017-May-27 13:00N 51°01' E 001°40'714.6
2017-May-27 12:31N 50°58' E 001°51'0 0.5
2017-May-27 12:00N 50°58' E 001°51'0 0.4
2017-May-27 11:26N 50°58' E 001°51'818.7
2017-May-27 11:01N 50°60' E 001°38'1019.1
2017-May-27 10:30N 51°05' E 001°26'4 7.4
2017-May-27 09:57N 51°07' E 001°20'0 0.0
2017-May-27 09:26N 51°07' E 001°20'2 3.7
2017-May-27 09:00N 51°07' E 001°23'1019.5
2017-May-27 08:30N 51°02' E 001°36'918.6
2017-May-27 08:00N 50°58' E 001°49'1 1.9
2017-May-27 07:29N 50°58' E 001°51'0 0.0
2017-May-27 07:00N 50°58' E 001°51'713.9
2017-May-27 06:30N 50°58' E 001°40'917.8
2017-May-27 06:00N 51°04' E 001°29'7 8.3
2017-May-27 05:13N 51°07' E 001°20'0 0.0
2017-May-27 05:00N 51°07' E 001°20'0 0.0
2017-May-27 04:24N 51°07' E 001°20'2 4.6
2017-May-27 04:00N 51°07' E 001°23'917.3
2017-May-27 03:31N 51°03' E 001°35'816.8
2017-May-27 03:00N 50°58' E 001°46'4 7.4
2017-May-27 02:30N 50°58' E 001°52'0 0.0
2017-May-27 02:00N 50°58' E 001°52'0 0.0
2017-May-27 01:30N 50°58' E 001°52'713.8
2017-May-27 01:00N 50°59' E 001°41'1019.3
2017-May-27 00:30N 51°04' E 001°28'611.8
2017-May-27 00:00N 51°07' E 001°20'0 0.0
2017-May-26 23:22N 51°07' E 001°20'410.8
2017-May-26 23:00N 51°06' E 001°26'1019.2
2017-May-26 22:31N 51°01' E 001°39'815.8
2017-May-26 22:00N 50°58' E 001°51'0 0.5
2017-May-26 21:30N 50°58' E 001°51'1 1.9
2017-May-26 21:00N 50°58' E 001°50'816.9
2017-May-26 20:31N 50°58' E 001°36'917.8
2017-May-26 20:00N 51°04' E 001°25'5 7.5
2017-May-26 19:23N 51°07' E 001°20'0 0.0
2017-May-26 18:55N 51°07' E 001°20'2 6.1
2017-May-26 18:31N 51°07' E 001°24'918.2
2017-May-26 18:01N 51°02' E 001°36'918.9
2017-May-26 17:31N 50°58' E 001°50'1 1.5
2017-May-26 17:00N 50°58' E 001°51'0 0.1
2017-May-26 16:30N 50°58' E 001°51'714.4
2017-May-26 16:00N 50°58' E 001°40'918.9
2017-May-26 15:30N 51°03' E 001°27'610.4
2017-May-26 14:56N 51°07' E 001°20'0 0.0
2017-May-26 14:30N 51°07' E 001°20'1110.7
2017-May-26 13:31N 51°02' E 001°35'917.4
2017-May-26 13:01N 50°58' E 001°47'3 5.9
2017-May-26 12:30N 50°58' E 001°52'0 0.0
2017-May-26 12:01N 50°58' E 001°52'2 3.3
2017-May-26 11:30N 50°58' E 001°49'918.8
2017-May-26 11:00N 50°60' E 001°34'1019.2
2017-May-26 10:30N 51°06' E 001°22'2 1.8
2017-May-26 09:24N 51°07' E 001°20'2 6.0
2017-May-26 09:00N 51°07' E 001°24'1019.8
2017-May-26 08:30N 51°02' E 001°37'918.1
2017-May-26 08:00N 50°58' E 001°51'0 0.7
2017-May-26 07:30N 50°58' E 001°51'0 0.1
2017-May-26 07:00N 50°58' E 001°51'714.4
2017-May-26 06:30N 50°59' E 001°40'918.2
2017-May-26 06:00N 51°04' E 001°28'611.7
2017-May-26 05:29N 51°07' E 001°20'0 0.0
2017-May-26 04:51N 51°07' E 001°20'0 0.0
2017-May-26 04:30N 51°07' E 001°20'0 0.6
2017-May-26 04:01N 51°07' E 001°20'815.4
2017-May-26 03:30N 51°05' E 001°32'917.2
2017-May-26 03:00N 50°59' E 001°43'510.8
2017-May-26 02:30N 50°58' E 001°51'0 0.0
2017-May-26 02:00N 50°58' E 001°51'4 8.4
2017-May-26 01:31N 50°58' E 001°44'919.0
2017-May-26 01:01N 51°03' E 001°31'810.6
2017-May-26 00:13N 51°07' E 001°20'0 0.0
2017-May-25 23:59N 51°07' E 001°20'0 0.0
2017-May-25 23:29N 51°07' E 001°20'3 6.9
2017-May-25 23:00N 51°07' E 001°25'918.4
2017-May-25 22:30N 51°03' E 001°39'816.0
2017-May-25 22:00N 50°58' E 001°49'1 2.9
2017-May-25 21:30N 50°58' E 001°51'0 0.4
2017-May-25 21:00N 50°58' E 001°51'816.5
2017-May-25 20:30N 50°59' E 001°38'917.2
2017-May-25 20:00N 51°02' E 001°25'6 4.4
2017-May-25 18:41N 51°07' E 001°20'213.8
2017-May-25 18:30N 51°07' E 001°24'918.9
2017-May-25 18:00N 51°01' E 001°37'918.4
2017-May-25 17:30N 50°58' E 001°50'1 1.1
2017-May-25 17:00N 50°58' E 001°51'0 0.0
2017-May-25 16:30N 50°58' E 001°51'4 8.6
2017-May-25 16:01N 50°58' E 001°44'917.8
2017-May-25 15:31N 51°02' E 001°32'917.8
2017-May-25 15:00N 51°07' E 001°20'0 0.2
2017-May-25 13:59N 51°07' E 001°20'713.8
2017-May-25 13:30N 51°06' E 001°30'918.7
2017-May-25 13:00N 50°60' E 001°42'612.0
2017-May-25 12:30N 50°58' E 001°51'0 0.0
2017-May-25 12:00N 50°58' E 001°51'1 1.7
2017-May-25 11:31N 50°58' E 001°50'918.5
2017-May-25 11:00N 51°01' E 001°36'1019.0
2017-May-25 10:30N 51°06' E 001°23'2 4.1
2017-May-25 10:00N 51°07' E 001°20'0 0.0
2017-May-25 09:29N 51°07' E 001°20'5 9.6
2017-May-25 09:01N 51°06' E 001°27'918.7
2017-May-25 08:31N 51°00' E 001°39'815.7
2017-May-25 08:00N 50°58' E 001°51'0 0.3
2017-May-25 07:30N 50°58' E 001°51'0 0.0
2017-May-25 06:58N 50°58' E 001°51'612.5
2017-May-25 06:30N 50°58' E 001°42'816.3
2017-May-25 06:00N 51°03' E 001°31'813.7
2017-May-25 05:23N 51°07' E 001°20'0 0.0
2017-May-25 05:00N 51°07' E 001°20'0 0.5
2017-May-25 04:20N 51°07' E 001°20'1 3.8
2017-May-25 04:00N 51°07' E 001°22'713.3
2017-May-25 03:30N 51°05' E 001°32'816.4
2017-May-25 03:00N 50°60' E 001°42'611.3
2017-May-25 02:30N 50°58' E 001°51'0 0.0
2017-May-25 01:59N 50°58' E 001°51'0 0.0
2017-May-25 01:30N 50°58' E 001°51'713.6
2017-May-25 01:00N 50°59' E 001°40'1019.4
2017-May-25 00:31N 51°04' E 001°28'610.9
2017-May-24 23:59N 51°07' E 001°20'0 0.0
2017-May-24 23:26N 51°07' E 001°20'2 4.4
2017-May-24 23:01N 51°07' E 001°23'917.8
2017-May-24 22:31N 51°03' E 001°36'917.1
2017-May-24 22:01N 50°58' E 001°47'3 5.4
2017-May-24 21:30N 50°58' E 001°51'0 0.0
2017-May-24 21:00N 50°58' E 001°51'3 6.7
2017-May-24 20:30N 50°58' E 001°46'918.3
2017-May-24 20:00N 51°01' E 001°32'1016.6
2017-May-24 19:24N 51°07' E 001°20'0 0.0
2017-May-24 19:00N 51°07' E 001°20'2 3.3
2017-May-24 18:31N 51°07' E 001°23'1019.3
2017-May-24 18:01N 51°03' E 001°36'918.2
2017-May-24 17:30N 50°58' E 001°49'1 2.6
2017-May-24 17:00N 50°58' E 001°51'0 0.0
2017-May-24 16:28N 50°58' E 001°51'612.6
2017-May-24 16:00N 50°58' E 001°42'917.6
2017-May-24 15:30N 51°03' E 001°30'8 7.6
2017-May-24 14:29N 51°07' E 001°20'1212.4
2017-May-24 13:31N 51°02' E 001°38'917.1
2017-May-24 13:00N 50°58' E 001°50'1 1.5
2017-May-24 12:30N 50°58' E 001°51'0 0.0
2017-May-24 12:00N 50°58' E 001°51'4 7.6
2017-May-24 11:30N 50°58' E 001°45'1019.1
2017-May-24 11:00N 51°02' E 001°32'917.0
2017-May-24 10:29N 51°07' E 001°20'0 0.0
2017-May-24 09:57N 51°07' E 001°20'0 0.4
2017-May-24 09:28N 51°07' E 001°20'4 7.9
2017-May-24 09:01N 51°07' E 001°26'1019.3
2017-May-24 08:31N 51°01' E 001°39'816.0
2017-May-24 08:00N 50°58' E 001°51'0 0.7
2017-May-24 07:30N 50°58' E 001°51'1 1.4
2017-May-24 07:00N 50°58' E 001°50'917.7
2017-May-24 06:30N 50°60' E 001°36'919.0
2017-May-24 06:00N 51°05' E 001°24'3 4.7
2017-May-24 05:19N 51°07' E 001°20'0 0.0
2017-May-24 05:00N 51°07' E 001°20'1 2.6
2017-May-24 04:30N 51°07' E 001°22'4 8.6
2017-May-24 04:01N 51°06' E 001°29'1019.0
2017-May-24 03:31N 51°00' E 001°40'713.9
2017-May-24 03:00N 50°58' E 001°51'0 1.0
2017-May-24 02:30N 50°58' E 001°52'0 0.0
2017-May-24 02:00N 50°58' E 001°52'3 5.5
2017-May-24 01:30N 50°58' E 001°47'918.1
2017-May-24 01:00N 51°01' E 001°34'918.6
2017-May-24 00:30N 51°07' E 001°22'1 2.8
2017-May-24 00:00N 51°07' E 001°20'0 0.0
2017-May-23 23:28N 51°07' E 001°20'1 2.7
2017-May-23 22:59N 51°07' E 001°22'611.5
2017-May-23 22:31N 51°06' E 001°30'918.5
2017-May-23 22:01N 50°60' E 001°42'611.7
2017-May-23 21:29N 50°58' E 001°51'0 0.0
2017-May-23 20:58N 50°58' E 001°51'2 4.1
2017-May-23 20:29N 50°58' E 001°48'919.2
2017-May-23 20:00N 51°00' E 001°34'918.9
2017-May-23 19:30N 51°06' E 001°22'2 2.5
2017-May-23 18:53N 51°07' E 001°20'0 0.3
2017-May-23 18:29N 51°07' E 001°20'611.7
2017-May-23 18:01N 51°05' E 001°29'917.3
2017-May-23 17:31N 51°00' E 001°40'714.8
2017-May-23 17:01N 50°58' E 001°51'0 0.2
2017-May-23 16:30N 50°58' E 001°51'0 0.2
2017-May-23 16:00N 50°58' E 001°51'714.9
2017-May-23 15:30N 50°59' E 001°39'918.5
2017-May-23 15:00N 51°04' E 001°27'5 5.2
2017-May-23 13:57N 51°07' E 001°20'4 8.5
2017-May-23 13:30N 51°07' E 001°26'816.1
2017-May-23 13:00N 51°01' E 001°35'816.7
2017-May-23 12:30N 50°58' E 001°48'2 4.1
2017-May-23 11:59N 50°58' E 001°51'0 0.0
2017-May-23 11:29N 50°58' E 001°51'612.9
2017-May-23 11:00N 50°58' E 001°41'1019.0
2017-May-23 10:30N 51°04' E 001°29'712.9
2017-May-23 10:00N 51°07' E 001°20'0 0.0
2017-May-23 09:24N 51°07' E 001°20'3 6.8
2017-May-23 09:00N 51°07' E 001°24'816.9
2017-May-23 08:30N 51°03' E 001°36'816.1
2017-May-23 08:00N 50°58' E 001°46'3 5.5
2017-May-23 07:30N 50°58' E 001°51'0 0.0
2017-May-23 06:59N 50°58' E 001°51'511.1
2017-May-23 06:30N 50°58' E 001°43'918.8
2017-May-23 06:00N 51°03' E 001°29'8 9.0
2017-May-23 05:10N 51°07' E 001°20'0 0.0
2017-May-23 04:49N 51°07' E 001°20'0 0.0
2017-May-23 04:29N 51°07' E 001°20'0 0.0
2017-May-23 04:00N 51°07' E 001°20'612.7
2017-May-23 03:30N 51°05' E 001°29'1019.1
2017-May-23 03:01N 50°59' E 001°41'612.5
2017-May-23 02:31N 50°58' E 001°51'0 0.0
2017-May-23 01:59N 50°58' E 001°51'0 0.0
2017-May-23 01:30N 50°58' E 001°51'611.9
2017-May-23 01:00N 50°59' E 001°42'1020.0
2017-May-23 00:30N 51°03' E 001°28'611.5
2017-May-22 23:57N 51°07' E 001°20'0 0.0
2017-May-22 23:17N 51°07' E 001°20'0 0.5
2017-May-22 23:00N 51°07' E 001°20'815.6
2017-May-22 22:30N 51°05' E 001°31'1019.4
2017-May-22 22:00N 50°59' E 001°44'5 9.1
2017-May-22 21:30N 50°58' E 001°51'0 0.0
2017-May-22 21:00N 50°58' E 001°51'4 7.3
2017-May-22 20:30N 50°58' E 001°45'1020.3
2017-May-22 20:00N 51°02' E 001°31'8 4.9
2017-May-22 18:20N 51°07' E 001°20'617.1
2017-May-22 18:00N 51°06' E 001°29'1019.5
2017-May-22 17:30N 51°00' E 001°42'612.2
2017-May-22 17:00N 50°58' E 001°51'0 0.0
2017-May-22 16:26N 50°58' E 001°51'2 4.0
2017-May-22 16:00N 50°58' E 001°48'917.3
2017-May-22 15:30N 50°60' E 001°35'1019.3
2017-May-22 15:00N 51°06' E 001°23'2 2.4
2017-May-22 13:59N 51°07' E 001°20'3 6.6
2017-May-22 13:30N 51°07' E 001°25'817.0
2017-May-22 13:00N 51°02' E 001°36'816.7
2017-May-22 12:30N 50°58' E 001°48'2 3.6
2017-May-22 12:00N 50°58' E 001°51'0 0.0
2017-May-22 11:30N 50°58' E 001°51'714.4
2017-May-22 11:00N 50°59' E 001°40'1019.5
2017-May-22 10:31N 51°04' E 001°26'5 6.9
2017-May-22 09:45N 51°07' E 001°20'0 0.0
2017-May-22 09:29N 51°07' E 001°20'2 4.8
2017-May-22 09:01N 51°07' E 001°24'917.2
2017-May-22 08:31N 51°02' E 001°35'816.3
2017-May-22 08:01N 50°58' E 001°46'3 5.7
2017-May-22 07:30N 50°58' E 001°51'0 0.0
2017-May-22 07:00N 50°58' E 001°51'510.0
2017-May-22 06:30N 50°58' E 001°43'917.8
2017-May-22 06:01N 51°03' E 001°31'816.2
2017-May-22 05:30N 51°07' E 001°20'0 0.1
2017-May-22 04:58N 51°07' E 001°20'0 0.0
2017-May-22 04:30N 51°07' E 001°20'3 5.2
2017-May-22 04:00N 51°07' E 001°24'1019.1
2017-May-22 03:30N 51°02' E 001°37'917.9
2017-May-22 03:01N 50°58' E 001°50'1 2.0
2017-May-22 02:30N 50°58' E 001°52'0 0.0
2017-May-22 02:01N 50°58' E 001°52'0 0.0
2017-May-22 01:30N 50°58' E 001°52'2 4.0
2017-May-22 01:01N 50°58' E 001°48'816.9
2017-May-22 00:31N 51°01' E 001°36'1019.8
2017-May-22 00:01N 51°06' E 001°22'2 3.4
2017-May-21 23:27N 51°07' E 001°20'0 0.3
2017-May-21 23:00N 51°07' E 001°20'816.1
2017-May-21 22:30N 51°04' E 001°32'917.5
2017-May-21 22:00N 50°59' E 001°43'5 9.8
2017-May-21 21:30N 50°58' E 001°51'0 0.0
2017-May-21 21:00N 50°58' E 001°51'0 0.1
2017-May-21 20:30N 50°58' E 001°51'714.7
2017-May-21 20:00N 50°59' E 001°39'917.1
2017-May-21 19:30N 51°03' E 001°28'612.4
2017-May-21 19:00N 51°07' E 001°20'0 0.0
2017-May-21 18:27N 51°07' E 001°20'3 7.3
2017-May-21 18:01N 51°06' E 001°25'917.9
2017-May-21 17:31N 51°01' E 001°37'815.7
2017-May-21 17:00N 50°58' E 001°48'2 3.4
2017-May-21 16:30N 50°58' E 001°51'0 0.0
2017-May-21 16:00N 50°58' E 001°51'511.0
2017-May-21 15:30N 50°58' E 001°42'816.9
2017-May-21 15:00N 51°02' E 001°31'9 8.5
2017-May-21 14:00N 51°07' E 001°20'1 2.4
2017-May-21 13:30N 51°06' E 001°21'917.1
2017-May-21 13:00N 51°02' E 001°33'917.5
2017-May-21 12:31N 50°58' E 001°45'4 7.2
2017-May-21 12:00N 50°58' E 001°51'0 0.0
2017-May-21 11:30N 50°58' E 001°51'510.2
2017-May-21 11:01N 50°58' E 001°43'918.2
2017-May-21 10:31N 51°03' E 001°31'814.3
2017-May-21 09:57N 51°07' E 001°20'0 0.0
2017-May-21 09:30N 51°07' E 001°20'2 5.1
2017-May-21 09:01N 51°07' E 001°24'917.3
2017-May-21 08:30N 51°02' E 001°36'816.3
2017-May-21 08:01N 50°58' E 001°47'3 5.1
2017-May-21 07:30N 50°58' E 001°51'0 0.0
2017-May-21 07:00N 50°58' E 001°51'715.0
2017-May-21 06:30N 50°59' E 001°39'1019.5
2017-May-21 06:01N 51°04' E 001°26'510.0
2017-May-21 05:30N 51°07' E 001°20'0 0.0
2017-May-21 04:59N 51°07' E 001°20'0 0.0
2017-May-21 04:30N 51°07' E 001°20'0 0.0
2017-May-21 04:00N 51°07' E 001°20'510.3
2017-May-21 03:30N 51°06' E 001°28'1019.8
2017-May-21 03:00N 51°00' E 001°40'713.5
2017-May-21 02:30N 50°58' E 001°51'0 0.0
2017-May-21 02:00N 50°58' E 001°51'0 0.0
2017-May-21 01:30N 50°58' E 001°51'5 9.8
2017-May-21 01:01N 50°58' E 001°43'918.1
2017-May-21 00:31N 51°01' E 001°30'713.9
2017-May-21 00:00N 51°06' E 001°23'2 3.6
2017-May-20 23:28N 51°07' E 001°20'0 0.3
2017-May-20 22:58N 51°07' E 001°20'714.6
2017-May-20 22:30N 51°06' E 001°31'917.9
2017-May-20 22:00N 50°60' E 001°41'612.6
2017-May-20 21:30N 50°58' E 001°51'0 0.0
2017-May-20 21:00N 50°58' E 001°51'0 0.7
2017-May-20 20:29N 50°58' E 001°51'817.3
2017-May-20 20:00N 50°59' E 001°37'816.8
2017-May-20 19:30N 51°04' E 001°27'5 4.4
2017-May-20 18:17N 51°07' E 001°20'414.2
2017-May-20 18:00N 51°07' E 001°27'918.8
2017-May-20 17:30N 51°01' E 001°38'816.3
2017-May-20 17:00N 50°58' E 001°51'0 0.7
2017-May-20 16:30N 50°58' E 001°51'0 0.0
2017-May-20 16:00N 50°58' E 001°51'815.4
2017-May-20 15:30N 50°59' E 001°39'1019.1
2017-May-20 15:00N 51°05' E 001°27'5 7.2
2017-May-20 14:20N 51°07' E 001°20'3 3.2
2017-May-20 13:30N 51°06' E 001°24'816.5
2017-May-20 13:01N 51°03' E 001°35'816.9
2017-May-20 12:30N 50°58' E 001°47'3 4.8
2017-May-20 11:59N 50°58' E 001°51'0 0.0
2017-May-20 11:30N 50°58' E 001°51'613.0
2017-May-20 11:00N 50°59' E 001°41'919.0
2017-May-20 10:30N 51°04' E 001°28'6 4.9
2017-May-20 09:16N 51°07' E 001°20'2 6.4
2017-May-20 09:00N 51°07' E 001°23'917.1
2017-May-20 08:31N 51°03' E 001°34'816.9
2017-May-20 08:00N 50°58' E 001°46'3 6.6
2017-May-20 07:30N 50°58' E 001°51'0 0.0
2017-May-20 07:00N 50°58' E 001°51'611.7
2017-May-20 06:31N 50°59' E 001°42'918.9
2017-May-20 06:00N 51°03' E 001°29'7 9.6
2017-May-20 05:18N 51°07' E 001°20'0 0.0
2017-May-20 04:58N 51°07' E 001°20'0 0.0
2017-May-20 04:21N 51°07' E 001°20'411.3
2017-May-20 04:00N 51°06' E 001°26'919.0
2017-May-20 03:30N 51°01' E 001°39'816.4
2017-May-20 03:01N 50°58' E 001°51'1 1.0
2017-May-20 02:30N 50°58' E 001°52'0 0.0
2017-May-20 02:00N 50°58' E 001°52'0 0.0
2017-May-20 01:30N 50°58' E 001°52'510.9
2017-May-20 01:00N 50°58' E 001°43'918.7
2017-May-20 00:31N 51°03' E 001°30'815.5
2017-May-20 00:00N 51°07' E 001°20'0 0.1
2017-May-19 23:02N 51°07' E 001°20'0 1.8
2017-May-19 22:59N 51°07' E 001°20'613.3
2017-May-19 22:31N 51°05' E 001°29'918.2
2017-May-19 22:01N 50°60' E 001°41'612.8
2017-May-19 21:30N 50°58' E 001°51'0 0.0
2017-May-19 21:00N 50°58' E 001°51'0 0.5
2017-May-19 20:30N 50°58' E 001°51'917.8
2017-May-19 20:00N 50°59' E 001°37'918.6
2017-May-19 19:30N 51°05' E 001°26'4 3.4
2017-May-19 18:17N 51°07' E 001°20'311.2
2017-May-19 18:00N 51°06' E 001°25'1019.2
2017-May-19 17:30N 51°01' E 001°38'816.8
2017-May-19 17:01N 50°58' E 001°50'1 1.1
2017-May-19 16:30N 50°58' E 001°51'  

Dump ship's entire track history